<?xml version="1.0" encoding="UTF-8" standalone="no" ?>
<gpx xmlns="http://www.topografix.com/GPX/1/1" xmlns:xsi="http://www.w3.org/2001/XMLSchema-instance" xsi:schemaLocation="http://www.topografix.com/GPX/1/1 http://www.topografix.com/GPX/1/1/gpx.xsd" version="1.1" creator="VisuGPX - https://www.visugpx.com">
  <metadata>
    <name>autre</name>
    <desc><![CDATA[Guillaume et Pierre]]></desc>
  </metadata>
  <trk>
    <name><![CDATA[ACTIVE LOG: 23 FEV 2014 12:55]]></name>
    <trkseg>
      <trkpt lat="45.77464" lon="4.81801">
        <ele>182.79</ele>
        <time>2014-02-23T11:55:02Z</time>
      </trkpt>
      <trkpt lat="45.77464" lon="4.81801">
        <ele>181.83</ele>
        <time>2014-02-23T12:04:21Z</time>
      </trkpt>
      <trkpt lat="45.77291" lon="4.837">
        <ele>163.56</ele>
        <time>2014-02-23T12:04:24Z</time>
      </trkpt>
      <trkpt lat="45.77291" lon="4.83706">
        <ele>164.04</ele>
        <time>2014-02-23T12:04:25Z</time>
      </trkpt>
      <trkpt lat="45.77289" lon="4.83749">
        <ele>165</ele>
        <time>2014-02-23T12:04:37Z</time>
      </trkpt>
      <trkpt lat="45.77288" lon="4.83778">
        <ele>165.48</ele>
        <time>2014-02-23T12:04:47Z</time>
      </trkpt>
      <trkpt lat="45.77287" lon="4.838">
        <ele>166.45</ele>
        <time>2014-02-23T12:04:55Z</time>
      </trkpt>
      <trkpt lat="45.77286" lon="4.8382">
        <ele>167.41</ele>
        <time>2014-02-23T12:05:02Z</time>
      </trkpt>
      <trkpt lat="45.77286" lon="4.83833">
        <ele>168.37</ele>
        <time>2014-02-23T12:05:07Z</time>
      </trkpt>
      <trkpt lat="45.77292" lon="4.83831">
        <ele>168.37</ele>
        <time>2014-02-23T12:05:14Z</time>
      </trkpt>
      <trkpt lat="45.7729" lon="4.83839">
        <ele>167.89</ele>
        <time>2014-02-23T12:05:16Z</time>
      </trkpt>
      <trkpt lat="45.77284" lon="4.83836">
        <ele>168.85</ele>
        <time>2014-02-23T12:05:27Z</time>
      </trkpt>
      <trkpt lat="45.77275" lon="4.83862">
        <ele>168.85</ele>
        <time>2014-02-23T12:05:35Z</time>
      </trkpt>
      <trkpt lat="45.77273" lon="4.83903">
        <ele>168.85</ele>
        <time>2014-02-23T12:05:46Z</time>
      </trkpt>
      <trkpt lat="45.77271" lon="4.83938">
        <ele>168.85</ele>
        <time>2014-02-23T12:05:55Z</time>
      </trkpt>
      <trkpt lat="45.77268" lon="4.83967">
        <ele>168.37</ele>
        <time>2014-02-23T12:06:05Z</time>
      </trkpt>
      <trkpt lat="45.77267" lon="4.83994">
        <ele>167.89</ele>
        <time>2014-02-23T12:06:13Z</time>
      </trkpt>
      <trkpt lat="45.77267" lon="4.84029">
        <ele>167.41</ele>
        <time>2014-02-23T12:06:22Z</time>
      </trkpt>
      <trkpt lat="45.77266" lon="4.84069">
        <ele>166.45</ele>
        <time>2014-02-23T12:06:31Z</time>
      </trkpt>
      <trkpt lat="45.77261" lon="4.84117">
        <ele>165.48</ele>
        <time>2014-02-23T12:06:40Z</time>
      </trkpt>
      <trkpt lat="45.77269" lon="4.84161">
        <ele>164.04</ele>
        <time>2014-02-23T12:06:49Z</time>
      </trkpt>
      <trkpt lat="45.77275" lon="4.8418">
        <ele>164.04</ele>
        <time>2014-02-23T12:06:55Z</time>
      </trkpt>
      <trkpt lat="45.77286" lon="4.84228">
        <ele>163.08</ele>
        <time>2014-02-23T12:07:08Z</time>
      </trkpt>
      <trkpt lat="45.77298" lon="4.84281">
        <ele>163.08</ele>
        <time>2014-02-23T12:07:21Z</time>
      </trkpt>
      <trkpt lat="45.77259" lon="4.84318">
        <ele>162.12</ele>
        <time>2014-02-23T12:07:33Z</time>
      </trkpt>
      <trkpt lat="45.77233" lon="4.8434">
        <ele>162.12</ele>
        <time>2014-02-23T12:07:51Z</time>
      </trkpt>
      <trkpt lat="45.77195" lon="4.84356">
        <ele>161.64</ele>
        <time>2014-02-23T12:08:03Z</time>
      </trkpt>
      <trkpt lat="45.77199" lon="4.84379">
        <ele>161.64</ele>
        <time>2014-02-23T12:08:10Z</time>
      </trkpt>
      <trkpt lat="45.77206" lon="4.84434">
        <ele>161.16</ele>
        <time>2014-02-23T12:08:25Z</time>
      </trkpt>
      <trkpt lat="45.77163" lon="4.84445">
        <ele>161.16</ele>
        <time>2014-02-23T12:08:40Z</time>
      </trkpt>
      <trkpt lat="45.7714" lon="4.84446">
        <ele>161.16</ele>
        <time>2014-02-23T12:08:49Z</time>
      </trkpt>
      <trkpt lat="45.77128" lon="4.84428">
        <ele>161.16</ele>
        <time>2014-02-23T12:08:56Z</time>
      </trkpt>
      <trkpt lat="45.77123" lon="4.84369">
        <ele>161.16</ele>
        <time>2014-02-23T12:09:09Z</time>
      </trkpt>
      <trkpt lat="45.77144" lon="4.8435">
        <ele>160.68</ele>
        <time>2014-02-23T12:09:21Z</time>
      </trkpt>
      <trkpt lat="45.77171" lon="4.84361">
        <ele>160.68</ele>
        <time>2014-02-23T12:09:33Z</time>
      </trkpt>
      <trkpt lat="45.77175" lon="4.84404">
        <ele>161.16</ele>
        <time>2014-02-23T12:09:44Z</time>
      </trkpt>
      <trkpt lat="45.77182" lon="4.84438">
        <ele>161.16</ele>
        <time>2014-02-23T12:09:53Z</time>
      </trkpt>
      <trkpt lat="45.77183" lon="4.84457">
        <ele>160.68</ele>
        <time>2014-02-23T12:10:06Z</time>
      </trkpt>
    </trkseg>
  </trk>
</gpx>